Time;durP1;ratioP1;P1;durP2;ratioP2;P2;SDS_P1;SDS_P2;PMS_P1;PMS_P2;Temp;Humidity;BMP_temperature;BMP_pressure;BME280_temperature;BME280_humidity;BME280_pressure;Samples;Min_cycle;Max_cycle;Signal;HPM_P1;HPM_P2
2023/07/29 00:01:08;;;;;;;2.00;1.90;;;17.90;99.90;;;;;;5044475;28;20216;-62
2023/07/29 00:03:36;;;;;;;1.83;1.60;;;17.90;99.90;;;;;;5052279;28;20220;-62
2023/07/29 00:06:04;;;;;;;1.70;1.60;;;17.90;99.90;;;;;;5051605;28;20639;-62
2023/07/29 00:08:33;;;;;;;1.80;1.80;;;17.90;99.90;;;;;;5048238;28;20303;-62
2023/07/29 00:11:01;;;;;;;2.10;1.90;;;17.90;99.90;;;;;;5046825;28;20192;-62
2023/07/29 00:13:30;;;;;;;1.87;1.77;;;17.90;99.90;;;;;;5047842;28;20216;-62
2023/07/29 00:15:59;;;;;;;2.17;2.07;;;17.80;99.90;;;;;;5049678;28;20227;-62
2023/07/29 00:18:27;;;;;;;3.37;2.03;;;17.80;99.90;;;;;;5047273;28;20224;-62
2023/07/29 00:20:57;;;;;;;1.60;1.60;;;17.80;99.90;;;;;;5041628;28;20216;-62
2023/07/29 00:23:25;;;;;;;1.90;1.80;;;17.80;99.90;;;;;;5055002;28;20283;-62
2023/07/29 00:25:54;;;;;;;1.67;1.67;;;17.70;99.90;;;;;;5044877;28;20521;-62
2023/07/29 00:28:22;;;;;;;2.13;1.90;;;17.70;99.90;;;;;;5057229;28;20223;-62
2023/07/29 00:30:52;;;;;;;2.40;2.30;;;17.70;99.90;;;;;;5055504;28;20291;-62
2023/07/29 00:33:20;;;;;;;2.37;2.13;;;17.70;99.90;;;;;;5038022;28;20271;-62
2023/07/29 00:35:49;;;;;;;3.13;2.23;;;17.60;99.90;;;;;;5038373;28;20216;-62
2023/07/29 00:38:18;;;;;;;5.57;2.60;;;17.60;99.90;;;;;;5049803;28;20203;-62
2023/07/29 00:40:46;;;;;;;2.50;2.30;;;17.60;99.90;;;;;;5044205;28;20536;-62
2023/07/29 00:43:14;;;;;;;3.97;2.47;;;17.50;99.90;;;;;;5042557;28;20220;-63
2023/07/29 00:45:45;;;;;;;2.80;2.50;;;17.50;99.90;;;;;;5043897;28;20212;-62
2023/07/29 00:48:15;;;;;;;2.50;2.40;;;17.50;99.90;;;;;;5046534;28;20266;-62
2023/07/29 00:50:44;;;;;;;2.73;2.53;;;17.50;99.90;;;;;;5047804;28;20220;-62
2023/07/29 00:53:12;;;;;;;2.80;2.60;;;17.50;99.90;;;;;;5029756;28;20201;-62
2023/07/29 00:55:41;;;;;;;2.47;2.37;;;17.40;99.90;;;;;;5052379;28;20672;-62
2023/07/29 00:58:10;;;;;;;2.53;2.37;;;17.40;99.90;;;;;;5052740;28;20820;-62
2023/07/29 01:00:38;;;;;;;2.90;2.67;;;17.40;99.90;;;;;;5049313;28;20224;-62
2023/07/29 01:03:07;;;;;;;3.90;2.73;;;17.40;99.90;;;;;;5042644;28;20243;-62
2023/07/29 01:05:46;;;;;;;3.30;2.60;;;17.30;99.90;;;;;;5052033;28;20265;-62
2023/07/29 01:08:22;;;;;;;2.60;2.50;;;17.30;99.90;;;;;;5048562;28;20200;-62
2023/07/29 01:10:59;;;;;;;3.03;2.40;;;17.30;99.90;;;;;;5045974;28;20196;-62
2023/07/29 01:13:33;;;;;;;3.03;2.40;;;17.30;99.90;;;;;;5024793;28;20621;-62
2023/07/29 01:16:05;;;;;;;2.50;2.30;;;17.20;99.90;;;;;;5027608;28;20234;-62
2023/07/29 01:18:39;;;;;;;2.03;2.00;;;17.20;99.90;;;;;;5045895;28;20562;-62
2023/07/29 01:21:12;;;;;;;2.30;2.20;;;17.20;99.90;;;;;;5042974;28;20216;-62
2023/07/29 01:23:41;;;;;;;2.30;2.20;;;17.20;99.90;;;;;;5048421;28;20216;-62
2023/07/29 01:26:10;;;;;;;2.57;2.37;;;17.20;99.90;;;;;;5055086;28;20205;-61
2023/07/29 01:28:38;;;;;;;2.40;2.30;;;17.20;99.90;;;;;;5051196;28;20212;-62
2023/07/29 01:31:13;;;;;;;2.50;2.30;;;17.20;99.90;;;;;;5049413;28;20225;-62
2023/07/29 01:33:47;;;;;;;3.13;2.23;;;17.10;99.90;;;;;;5054141;28;20240;-62
2023/07/29 01:36:19;;;;;;;2.70;2.53;;;17.30;99.90;;;;;;5049748;28;20212;-62
2023/07/29 01:38:50;;;;;;;2.50;2.40;;;17.10;99.90;;;;;;5035891;28;20255;-62
2023/07/29 01:41:21;;;;;;;2.50;2.40;;;17.10;99.90;;;;;;5049633;28;20621;-62
2023/07/29 01:43:50;;;;;;;2.60;2.50;;;17.00;99.90;;;;;;5051837;28;20211;-62
2023/07/29 01:46:18;;;;;;;2.63;2.40;;;17.00;99.90;;;;;;5028046;28;20223;-62
2023/07/29 01:48:46;;;;;;;2.73;2.60;;;17.00;99.90;;;;;;5045279;28;20331;-62
2023/07/29 01:51:15;;;;;;;2.73;2.50;;;16.90;99.90;;;;;;5029929;28;20264;-62
2023/07/29 01:53:43;;;;;;;2.50;2.40;;;16.90;99.90;;;;;;5029322;28;20217;-62
2023/07/29 01:56:13;;;;;;;2.80;2.37;;;16.90;99.90;;;;;;5034257;28;20200;-62
2023/07/29 01:58:41;;;;;;;3.20;2.47;;;17.00;99.90;;;;;;5046581;28;20292;-62
2023/07/29 02:01:09;;;;;;;2.40;2.20;;;17.00;99.90;;;;;;5031763;28;20288;-61
2023/07/29 02:03:38;;;;;;;2.33;2.23;;;16.90;99.90;;;;;;5029760;28;20315;-62
2023/07/29 02:06:06;;;;;;;2.70;2.50;;;16.90;99.90;;;;;;5010903;28;20223;-62
2023/07/29 02:08:34;;;;;;;2.53;2.33;;;16.90;99.90;;;;;;5032580;28;20300;-62
2023/07/29 02:11:03;;;;;;;3.17;2.73;;;16.90;99.90;;;;;;5031655;28;20655;-62
2023/07/29 02:13:32;;;;;;;3.07;2.90;;;16.80;99.90;;;;;;5029961;28;20227;-62
2023/07/29 02:16:00;;;;;;;2.93;2.70;;;16.90;99.90;;;;;;5033703;28;20230;-62
2023/07/29 02:18:29;;;;;;;3.47;2.90;;;16.80;99.90;;;;;;5040620;28;20729;-62
2023/07/29 02:20:57;;;;;;;3.20;2.90;;;16.80;99.90;;;;;;5027360;28;20224;-62
2023/07/29 02:23:26;;;;;;;2.93;2.50;;;16.80;99.90;;;;;;5028981;28;20198;-62
2023/07/29 02:25:54;;;;;;;2.93;2.73;;;16.80;99.90;;;;;;5032011;28;20654;-62
2023/07/29 02:28:22;;;;;;;2.37;2.23;;;16.80;99.90;;;;;;5034314;28;20219;-63
2023/07/29 02:31:11;;;;;;;3.00;2.80;;;16.80;99.90;;;;;;5032299;28;20228;-62
2023/07/29 02:33:40;;;;;;;2.50;2.40;;;16.80;99.90;;;;;;5031930;28;20227;-62
2023/07/29 02:36:08;;;;;;;2.67;2.57;;;16.80;99.90;;;;;;5030369;28;20228;-62
2023/07/29 02:38:36;;;;;;;2.53;2.43;;;16.80;99.90;;;;;;5024197;28;20742;-61
2023/07/29 02:41:05;;;;;;;2.27;2.17;;;16.80;99.90;;;;;;5029390;28;20193;-62
2023/07/29 02:43:33;;;;;;;2.47;2.37;;;16.70;99.90;;;;;;5029444;28;20224;-62
2023/07/29 02:46:03;;;;;;;5.00;2.60;;;16.70;99.90;;;;;;5028918;28;20221;-62
2023/07/29 02:48:31;;;;;;;3.77;3.17;;;16.70;99.90;;;;;;5029690;28;20224;-62
2023/07/29 02:51:00;;;;;;;2.80;2.70;;;16.70;99.90;;;;;;5050683;28;20322;-62
2023/07/29 02:53:28;;;;;;;3.73;2.60;;;16.60;99.90;;;;;;5052016;28;20209;-62
2023/07/29 02:55:56;;;;;;;3.07;2.53;;;16.60;99.90;;;;;;5049435;28;20212;-62
2023/07/29 02:58:26;;;;;;;3.80;2.43;;;16.60;99.90;;;;;;5049882;28;20278;-61
2023/07/29 03:00:54;;;;;;;2.57;2.37;;;16.60;99.90;;;;;;5050460;28;21195;-62
2023/07/29 03:03:24;;;;;;;2.70;2.60;;;16.60;99.90;;;;;;5048067;28;20587;-62
2023/07/29 03:05:59;;;;;;;2.60;2.40;;;16.60;99.90;;;;;;5049869;28;20217;-61
2023/07/29 03:08:28;;;;;;;3.73;2.40;;;16.50;99.90;;;;;;5049937;28;21948;-62
2023/07/29 03:10:57;;;;;;;2.57;2.40;;;16.60;99.90;;;;;;5050638;28;20199;-62
2023/07/29 03:13:25;;;;;;;2.20;2.20;;;16.60;99.90;;;;;;5050076;28;20212;-62
2023/07/29 03:15:54;;;;;;;2.30;2.20;;;16.60;99.90;;;;;;5047467;28;20224;-62
2023/07/29 03:18:23;;;;;;;3.30;2.20;;;16.50;99.90;;;;;;5031483;28;20276;-62
2023/07/29 03:20:52;;;;;;;2.50;2.30;;;16.50;99.90;;;;;;5043005;28;20227;-62
2023/07/29 03:23:20;;;;;;;3.23;2.13;;;16.50;99.90;;;;;;5053409;28;20191;-62
2023/07/29 03:25:51;;;;;;;4.87;2.57;;;16.50;99.90;;;;;;5052527;28;20657;-62
2023/07/29 03:28:19;;;;;;;2.50;2.30;;;16.50;99.90;;;;;;5040668;28;20204;-62
2023/07/29 03:30:47;;;;;;;2.53;2.40;;;16.60;99.90;;;;;;5042077;28;20229;-62
2023/07/29 03:33:16;;;;;;;2.40;2.20;;;16.50;99.90;;;;;;5044984;28;20683;-62
2023/07/29 03:35:46;;;;;;;2.63;2.37;;;16.60;99.90;;;;;;5042225;28;20215;-62
2023/07/29 03:38:14;;;;;;;2.60;2.40;;;16.60;99.90;;;;;;5040357;28;20205;-61
2023/07/29 03:40:43;;;;;;;2.30;2.30;;;16.50;99.90;;;;;;5043663;28;20207;-62
2023/07/29 03:43:12;;;;;;;2.80;2.20;;;16.50;99.90;;;;;;5067228;22;20232;-60
2023/07/29 03:45:41;;;;;;;2.60;2.50;;;16.60;99.90;;;;;;5054634;28;20236;-61
2023/07/29 03:48:09;;;;;;;3.43;2.80;;;16.60;99.90;;;;;;5057831;28;20227;-60
2023/07/29 03:50:38;;;;;;;2.47;2.37;;;16.60;99.90;;;;;;5049919;28;20227;-61
2023/07/29 03:53:09;;;;;;;2.37;2.27;;;16.60;99.90;;;;;;5051690;28;20676;-61
2023/07/29 03:55:38;;;;;;;2.73;2.53;;;16.60;99.90;;;;;;5049348;28;20751;-60
2023/07/29 03:58:06;;;;;;;2.47;2.37;;;16.60;99.90;;;;;;5030321;28;20223;-60
2023/07/29 04:00:34;;;;;;;2.50;2.40;;;16.60;99.90;;;;;;5050023;28;20311;-61
2023/07/29 04:03:03;;;;;;;7.23;2.93;;;16.50;99.90;;;;;;5048401;28;20298;-60
2023/07/29 04:05:31;;;;;;;3.50;2.53;;;16.50;99.90;;;;;;5051725;28;20841;-60
2023/07/29 04:07:59;;;;;;;2.43;2.30;;;16.50;99.90;;;;;;5052122;28;20200;-61
2023/07/29 04:10:31;;;;;;;3.13;2.90;;;16.50;99.90;;;;;;5049896;28;20227;-60
2023/07/29 04:13:00;;;;;;;2.90;2.60;;;16.50;99.90;;;;;;5047637;28;20232;-61
2023/07/29 04:15:28;;;;;;;2.70;2.53;;;16.50;99.90;;;;;;5050137;28;20265;-60
2023/07/29 04:17:56;;;;;;;2.70;2.60;;;16.50;99.90;;;;;;5046748;28;20665;-61
2023/07/29 04:20:24;;;;;;;6.83;2.80;;;16.60;99.90;;;;;;5050108;28;20558;-60
2023/07/29 04:22:53;;;;;;;2.73;2.63;;;16.50;99.90;;;;;;5050446;28;20189;-61
2023/07/29 04:25:21;;;;;;;2.70;2.50;;;16.60;99.90;;;;;;5047495;28;20217;-60
2023/07/29 04:27:51;;;;;;;2.57;2.47;;;16.60;99.90;;;;;;5048591;28;20913;-60
2023/07/29 04:30:19;;;;;;;2.70;2.50;;;16.60;99.90;;;;;;5048212;28;20320;-60
2023/07/29 04:32:48;;;;;;;3.07;2.80;;;16.70;99.90;;;;;;5050287;28;20304;-60
2023/07/29 04:35:16;;;;;;;3.50;2.40;;;16.70;99.90;;;;;;5049979;28;20246;-60
2023/07/29 04:37:48;;;;;;;2.97;2.77;;;16.70;99.90;;;;;;5050975;28;20211;-60
2023/07/29 04:40:17;;;;;;;2.60;2.40;;;16.60;99.90;;;;;;5044124;28;20233;-60
2023/07/29 04:42:47;;;;;;;4.00;2.90;;;16.60;99.90;;;;;;5038478;28;20237;-60
2023/07/29 04:45:17;;;;;;;2.83;2.60;;;16.60;99.90;;;;;;5049081;28;20223;-60
2023/07/29 04:47:45;;;;;;;2.80;2.60;;;16.60;99.90;;;;;;5039301;28;20231;-60
2023/07/29 04:50:14;;;;;;;3.07;2.30;;;16.60;99.90;;;;;;5046790;28;20195;-60
2023/07/29 04:52:42;;;;;;;2.83;2.50;;;16.60;99.90;;;;;;5050404;28;20208;-60
2023/07/29 04:55:10;;;;;;;2.87;2.57;;;16.70;99.90;;;;;;5050301;28;20594;-60
2023/07/29 04:57:40;;;;;;;4.47;2.87;;;16.60;99.90;;;;;;5049847;28;20233;-60
2023/07/29 05:00:09;;;;;;;2.73;2.50;;;16.60;99.90;;;;;;5049391;28;20232;-60
2023/07/29 05:02:39;;;;;;;2.97;2.70;;;16.70;99.90;;;;;;5047761;28;24880;-60
2023/07/29 05:05:08;;;;;;;2.47;2.30;;;16.70;99.90;;;;;;5051649;28;20224;-60
2023/07/29 05:07:36;;;;;;;2.70;2.50;;;16.70;99.90;;;;;;5051752;28;20224;-60
2023/07/29 05:10:06;;;;;;;3.50;2.50;;;16.70;99.90;;;;;;5051820;28;20238;-60
2023/07/29 05:12:34;;;;;;;2.83;2.60;;;16.70;99.90;;;;;;5051681;28;20224;-60
2023/07/29 05:15:03;;;;;;;2.50;2.30;;;16.70;99.90;;;;;;5053407;28;20313;-61
2023/07/29 05:17:31;;;;;;;4.93;2.63;;;16.70;99.90;;;;;;5050073;28;20224;-60
2023/07/29 05:20:01;;;;;;;2.57;2.40;;;16.70;99.90;;;;;;5047609;28;20744;-61
2023/07/29 05:22:30;;;;;;;3.23;3.00;;;16.70;99.90;;;;;;5046365;28;21543;-61
2023/07/29 05:24:59;;;;;;;4.10;2.60;;;16.80;99.90;;;;;;5051195;28;20231;-60
2023/07/29 05:27:27;;;;;;;2.70;2.50;;;16.90;99.90;;;;;;5050414;28;20215;-61
2023/07/29 05:29:55;;;;;;;2.90;2.40;;;17.20;99.90;;;;;;5051518;28;20861;-60
2023/07/29 05:32:24;;;;;;;3.23;2.87;;;17.30;99.90;;;;;;5051947;28;20780;-60
2023/07/29 05:34:52;;;;;;;2.40;2.30;;;17.50;99.90;;;;;;5047173;28;20195;-60
2023/07/29 05:37:21;;;;;;;2.67;2.43;;;17.60;99.90;;;;;;5047580;28;20227;-61
2023/07/29 05:39:50;;;;;;;4.17;2.50;;;17.70;99.90;;;;;;5047994;28;20231;-61
2023/07/29 05:42:18;;;;;;;2.10;2.10;;;17.80;99.90;;;;;;5048294;28;20225;-61
2023/07/29 05:44:46;;;;;;;2.20;2.10;;;18.00;99.90;;;;;;5035201;28;20227;-61
2023/07/29 05:47:15;;;;;;;2.57;2.47;;;18.10;99.90;;;;;;5050132;28;20189;-61
2023/07/29 05:49:43;;;;;;;2.27;2.07;;;18.30;99.90;;;;;;5049486;28;20181;-61
2023/07/29 05:52:11;;;;;;;2.20;2.10;;;18.50;99.90;;;;;;5052397;28;20225;-60
2023/07/29 05:54:42;;;;;;;1.97;1.87;;;18.70;99.90;;;;;;5052980;28;20224;-60
2023/07/29 05:57:12;;;;;;;2.53;2.37;;;18.80;99.90;;;;;;5046666;28;20216;-60
2023/07/29 05:59:40;;;;;;;2.30;1.87;;;19.00;99.90;;;;;;5051974;28;20236;-60
2023/07/29 06:02:08;;;;;;;1.87;1.77;;;19.20;99.90;;;;;;5050984;28;20189;-61
2023/07/29 06:04:36;;;;;;;3.50;1.93;;;19.30;99.90;;;;;;5048648;28;20217;-60
2023/07/29 06:07:05;;;;;;;2.03;1.80;;;19.30;99.90;;;;;;5048928;28;20221;-61
2023/07/29 06:09:34;;;;;;;1.90;1.80;;;19.50;99.90;;;;;;5051341;28;20220;-61
2023/07/29 06:12:04;;;;;;;1.83;1.73;;;19.60;99.90;;;;;;5049725;28;20626;-61
2023/07/29 06:14:32;;;;;;;2.40;1.67;;;19.40;99.90;;;;;;5051757;28;20228;-61
2023/07/29 06:17:01;;;;;;;2.10;2.00;;;19.40;99.90;;;;;;5048903;28;20199;-61
2023/07/29 06:19:29;;;;;;;3.33;2.00;;;19.30;99.90;;;;;;5050354;28;20219;-60
2023/07/29 06:21:57;;;;;;;2.70;2.00;;;19.30;99.90;;;;;;5044345;28;20232;-61
2023/07/29 06:24:26;;;;;;;2.27;2.07;;;19.20;99.90;;;;;;5049116;28;20228;-61
2023/07/29 06:26:54;;;;;;;2.30;2.10;;;19.20;99.90;;;;;;5048271;28;20291;-60
2023/07/29 06:29:24;;;;;;;2.10;2.00;;;19.20;99.90;;;;;;5041919;28;20189;-60
2023/07/29 06:31:53;;;;;;;2.20;2.10;;;19.20;99.90;;;;;;5048384;28;20181;-61
2023/07/29 06:34:21;;;;;;;2.20;2.10;;;19.20;99.90;;;;;;5046703;28;20225;-61
2023/07/29 06:36:53;;;;;;;2.00;1.90;;;19.00;99.90;;;;;;5031187;28;20720;-61
2023/07/29 06:39:21;;;;;;;2.30;2.07;;;19.00;99.90;;;;;;5029458;28;20233;-60
2023/07/29 06:41:49;;;;;;;3.17;1.80;;;18.90;99.90;;;;;;5030365;28;20274;-61
2023/07/29 06:44:18;;;;;;;1.80;1.70;;;18.80;99.90;;;;;;5051083;28;20543;-61
2023/07/29 06:46:48;;;;;;;2.77;2.20;;;18.90;99.90;;;;;;5044284;28;20189;-61
2023/07/29 06:49:16;;;;;;;2.40;2.00;;;18.90;99.90;;;;;;5047998;28;20686;-61
2023/07/29 06:51:45;;;;;;;1.73;1.73;;;18.80;99.90;;;;;;5047552;28;20219;-61
2023/07/29 06:54:13;;;;;;;2.43;2.20;;;18.90;99.90;;;;;;5054369;28;20215;-60
2023/07/29 06:56:41;;;;;;;5.03;2.10;;;18.80;99.90;;;;;;5051508;28;20220;-60
2023/07/29 06:59:10;;;;;;;2.03;1.70;;;18.80;99.90;;;;;;5049433;28;20288;-61
2023/07/29 07:01:38;;;;;;;1.77;1.77;;;18.80;99.90;;;;;;5049422;28;20542;-61
2023/07/29 07:04:08;;;;;;;2.03;1.93;;;18.80;99.90;;;;;;5049613;28;20670;-61
2023/07/29 07:06:36;;;;;;;1.93;1.83;;;18.80;99.90;;;;;;5048214;28;20708;-61
2023/07/29 07:09:05;;;;;;;2.17;2.00;;;18.90;99.90;;;;;;5045438;28;20592;-61
2023/07/29 07:11:33;;;;;;;2.20;2.00;;;18.90;99.90;;;;;;5052355;28;20519;-60
2023/07/29 07:14:01;;;;;;;2.10;2.00;;;19.00;99.90;;;;;;5054045;28;20197;-61
2023/07/29 07:16:30;;;;;;;3.03;2.20;;;19.10;99.90;;;;;;5051084;28;20302;-60
2023/07/29 07:18:58;;;;;;;5.37;2.20;;;19.10;99.90;;;;;;5050723;28;20655;-61
2023/07/29 07:21:28;;;;;;;2.20;2.10;;;19.30;99.90;;;;;;5049863;28;20235;-61
2023/07/29 07:23:56;;;;;;;2.37;1.90;;;19.60;99.90;;;;;;5050548;28;20235;-61
2023/07/29 07:26:25;;;;;;;2.13;2.03;;;20.30;99.90;;;;;;5049110;28;20247;-61
2023/07/29 07:28:53;;;;;;;1.90;1.80;;;20.70;94.00;;;;;;5052506;28;20193;-61
2023/07/29 07:31:21;;;;;;;1.83;1.80;;;20.80;84.10;;;;;;5048428;28;20212;-61
2023/07/29 07:33:50;;;;;;;1.87;1.77;;;20.90;93.00;;;;;;5050960;28;20310;-61
2023/07/29 07:36:18;;;;;;;1.93;1.83;;;20.90;85.00;;;;;;5048389;28;20255;-61
2023/07/29 07:38:48;;;;;;;1.90;1.80;;;21.00;87.10;;;;;;5051022;28;20217;-61
2023/07/29 07:41:16;;;;;;;1.73;1.60;;;21.10;83.70;;;;;;5048792;28;20218;-61
2023/07/29 07:43:44;;;;;;;2.77;1.90;;;21.20;82.00;;;;;;5050033;28;20230;-60
2023/07/29 07:46:12;;;;;;;1.90;1.80;;;21.40;73.20;;;;;;5050822;28;20222;-61
2023/07/29 07:48:41;;;;;;;1.90;1.73;;;21.50;70.10;;;;;;5055254;28;20291;-62
2023/07/29 07:51:13;;;;;;;1.60;1.50;;;21.60;65.50;;;;;;5051006;28;20221;-60
2023/07/29 07:53:41;;;;;;;3.10;1.90;;;21.60;77.00;;;;;;5050841;28;20221;-61
2023/07/29 07:56:11;;;;;;;2.37;1.77;;;21.60;58.30;;;;;;5048613;28;20220;-61
2023/07/29 07:58:40;;;;;;;2.40;2.00;;;21.50;77.80;;;;;;5035148;28;20293;-61
2023/07/29 08:01:09;;;;;;;1.40;1.40;;;21.50;78.80;;;;;;5049347;28;20227;-60
2023/07/29 08:03:38;;;;;;;3.03;1.70;;;21.60;67.10;;;;;;5050777;28;20219;-61
2023/07/29 08:06:06;;;;;;;1.80;1.70;;;21.70;83.20;;;;;;5050495;28;20953;-60
2023/07/29 08:08:38;;;;;;;2.00;1.73;;;22.10;68.40;;;;;;5053265;28;20249;-61
2023/07/29 08:11:06;;;;;;;4.27;1.60;;;22.70;70.10;;;;;;5055223;28;20187;-61
2023/07/29 08:13:36;;;;;;;3.40;1.33;;;23.00;13.80;;;;;;5051401;28;20594;-61
2023/07/29 08:16:04;;;;;;;1.80;1.30;;;23.00;1.00;;;;;;5051183;28;20228;-60
2023/07/29 08:18:33;;;;;;;1.67;1.57;;;23.10;1.00;;;;;;5047022;28;20307;-61
2023/07/29 08:21:03;;;;;;;2.40;1.23;;;23.50;1.00;;;;;;5044767;28;20251;-61
2023/07/29 08:23:33;;;;;;;2.80;1.40;;;23.80;1.00;;;;;;5050805;28;20224;-61
2023/07/29 08:26:04;;;;;;;2.35;1.13;;;24.10;1.00;;;;;;5050271;28;20185;-61
2023/07/29 08:28:36;;;;;;;2.75;1.73;;;24.50;1.00;;;;;;5049966;28;20592;-62
2023/07/29 08:31:05;;;;;;;1.40;1.30;;;24.70;1.00;;;;;;5049512;28;21021;-61
2023/07/29 08:33:34;;;;;;;2.10;1.30;;;24.90;1.00;;;;;;5049065;28;20242;-61
2023/07/29 08:36:06;;;;;;;5.63;1.60;;;24.90;1.00;;;;;;5048462;28;20246;-61
2023/07/29 08:38:34;;;;;;;1.35;1.35;;;24.90;1.00;;;;;;5050530;28;20237;-62
2023/07/29 08:41:09;;;;;;;1.52;1.40;;;24.70;1.00;;;;;;5055107;28;20305;-60
2023/07/29 08:43:41;;;;;;;1.55;1.50;;;24.30;1.00;;;;;;5045107;28;20321;-60
2023/07/29 08:46:12;;;;;;;1.63;1.52;;;24.10;1.00;;;;;;5053568;28;20231;-61
2023/07/29 08:48:42;;;;;;;1.87;1.77;;;23.80;1.00;;;;;;5054872;28;20220;-61
2023/07/29 08:51:11;;;;;;;1.43;1.43;;;23.50;1.00;;;;;;5052324;28;20225;-61
2023/07/29 08:53:40;;;;;;;3.93;1.70;;;23.20;1.00;;;;;;5047653;28;20229;-60
2023/07/29 08:56:09;;;;;;;1.67;1.60;;;23.20;1.00;;;;;;5047307;28;20902;-61
2023/07/29 08:58:40;;;;;;;1.50;1.40;;;23.60;1.00;;;;;;5053845;28;20220;-61
2023/07/29 09:01:08;;;;;;;1.57;1.50;;;23.70;1.00;;;;;;5049741;28;20224;-61
2023/07/29 09:03:37;;;;;;;1.40;1.40;;;23.90;1.00;;;;;;5053195;28;20209;-61
2023/07/29 09:06:08;;;;;;;1.60;1.50;;;23.80;1.00;;;;;;5052893;28;21785;-61
2023/07/29 09:08:36;;;;;;;1.63;1.63;;;23.50;1.00;;;;;;5037733;28;20229;-61
2023/07/29 09:11:05;;;;;;;1.63;1.63;;;23.20;1.00;;;;;;5054944;28;20197;-60
2023/07/29 09:13:33;;;;;;;2.07;1.97;;;22.90;1.00;;;;;;5054685;28;20235;-60
2023/07/29 09:16:05;;;;;;;2.17;2.00;;;22.60;1.00;;;;;;5036096;28;20225;-60
2023/07/29 09:18:34;;;;;;;2.00;1.90;;;22.50;1.00;;;;;;5048807;28;20764;-61
2023/07/29 09:21:03;;;;;;;1.50;1.50;;;22.40;1.00;;;;;;5029370;28;20226;-60
2023/07/29 09:23:40;;;;;;;2.20;1.70;;;22.30;1.00;;;;;;5052265;28;20225;-60
2023/07/29 09:26:09;;;;;;;2.17;2.07;;;22.20;1.00;;;;;;5049646;28;20198;-61
2023/07/29 09:28:38;;;;;;;2.30;2.20;;;22.20;1.00;;;;;;5055299;28;20520;-61
2023/07/29 09:31:19;;;;;;;2.10;2.00;;;22.10;1.00;;;;;;5032922;28;20213;-60
2023/07/29 09:33:48;;;;;;;1.80;1.80;;;22.30;1.00;;;;;;5050679;28;20305;-60
2023/07/29 09:36:16;;;;;;;3.20;1.80;;;22.50;1.00;;;;;;5051617;28;20219;-61
2023/07/29 09:38:46;;;;;;;2.53;2.07;;;22.90;1.00;;;;;;5055311;28;20278;-60
2023/07/29 09:41:16;;;;;;;1.53;1.43;;;23.40;1.00;;;;;;5057363;28;20254;-61
2023/07/29 09:43:44;;;;;;;2.23;1.90;;;23.60;1.00;;;;;;5051836;28;20232;-60
2023/07/29 09:46:14;;;;;;;1.70;1.70;;;23.70;1.00;;;;;;5048867;28;20228;-61
2023/07/29 09:48:45;;;;;;;1.60;1.60;;;23.40;1.00;;;;;;5049541;28;20215;-60
2023/07/29 09:51:14;;;;;;;1.87;1.77;;;23.10;1.00;;;;;;5051251;28;20668;-60
2023/07/29 09:53:44;;;;;;;1.80;1.70;;;22.90;1.00;;;;;;5054471;28;20267;-60
2023/07/29 09:56:16;;;;;;;1.70;1.70;;;23.00;1.00;;;;;;5052263;28;20284;-61
2023/07/29 09:58:45;;;;;;;3.90;2.03;;;23.20;1.00;;;;;;5051750;28;20273;-60
2023/07/29 10:01:15;;;;;;;4.27;2.33;;;23.20;1.00;;;;;;5052956;28;20243;-60
2023/07/29 10:03:45;;;;;;;1.70;1.60;;;23.10;1.00;;;;;;5050634;28;20322;-60
2023/07/29 10:06:16;;;;;;;1.87;1.87;;;23.00;1.00;;;;;;5047742;28;20230;-60
2023/07/29 10:08:50;;;;;;;2.03;1.80;;;23.20;1.00;;;;;;5053205;28;20717;-60
2023/07/29 10:11:20;;;;;;;1.77;1.67;;;23.30;1.00;;;;;;5051082;28;20196;-60
2023/07/29 10:13:49;;;;;;;2.00;1.90;;;23.50;1.00;;;;;;5053661;28;20535;-61
2023/07/29 10:16:38;;;;;;;5.70;2.30;;;23.30;1.00;;;;;;5054054;28;20223;-61
2023/07/29 10:19:08;;;;;;;1.90;1.80;;;23.00;1.00;;;;;;5053525;28;20217;-60
2023/07/29 10:21:40;;;;;;;2.30;2.20;;;22.70;1.00;;;;;;5052223;28;20215;-61
2023/07/29 10:24:15;;;;;;;2.27;2.17;;;22.40;1.00;;;;;;5052562;28;20223;-61
2023/07/29 10:26:46;;;;;;;2.37;2.27;;;22.30;1.00;;;;;;5043727;28;20576;-60
2023/07/29 10:29:17;;;;;;;2.43;2.20;;;22.40;1.00;;;;;;5048578;28;20302;-60
2023/07/29 10:31:48;;;;;;;2.83;2.63;;;22.40;1.00;;;;;;5053254;28;20184;-60
2023/07/29 10:34:16;;;;;;;2.23;2.10;;;22.60;1.00;;;;;;5052146;28;20226;-60
2023/07/29 10:36:46;;;;;;;3.43;1.83;;;22.90;1.00;;;;;;5051530;28;20260;-61
2023/07/29 10:39:14;;;;;;;1.90;1.80;;;23.10;1.00;;;;;;5052545;28;20692;-61
2023/07/29 10:41:59;;;;;;;1.90;1.80;;;23.00;1.00;;;;;;5056081;28;20230;-61
2023/07/29 10:44:49;;;;;;;1.67;1.63;;;23.50;1.00;;;;;;5056319;28;20206;-61
2023/07/29 10:47:20;;;;;;;2.60;1.53;;;24.20;1.00;;;;;;5056693;28;20192;-61
2023/07/29 10:49:52;;;;;;;1.80;1.70;;;25.00;1.00;;;;;;5054975;28;20208;-61
2023/07/29 10:52:32;;;;;;;5.20;1.33;;;25.60;1.00;;;;;;5051271;28;20204;-61
2023/07/29 10:55:01;;;;;;;1.40;1.30;;;25.40;1.00;;;;;;5051354;28;20217;-61
2023/07/29 10:57:34;;;;;;;1.10;1.10;;;24.70;1.00;;;;;;5050466;28;20243;-60
2023/07/29 11:00:06;;;;;;;1.10;1.10;;;24.10;1.00;;;;;;5048848;28;20800;-60
2023/07/29 11:02:38;;;;;;;1.00;1.00;;;23.60;1.00;;;;;;5045767;28;20244;-60
2023/07/29 11:05:17;;;;;;;3.70;1.77;;;23.30;1.00;;;;;;5048411;28;20227;-61
2023/07/29 11:07:48;;;;;;;1.30;1.30;;;23.10;1.00;;;;;;5049187;28;20717;-61
2023/07/29 11:10:16;;;;;;;1.50;1.50;;;22.90;1.00;;;;;;5053288;28;20242;-61
2023/07/29 11:12:47;;;;;;;1.50;1.50;;;22.90;1.00;;;;;;5053509;28;20240;-61
2023/07/29 11:15:22;;;;;;;1.30;1.30;;;22.90;1.00;;;;;;5049565;28;20229;-61
2023/07/29 11:17:54;;;;;;;1.40;1.40;;;22.90;1.00;;;;;;5052721;28;20262;-61
2023/07/29 11:20:24;;;;;;;1.50;1.50;;;23.10;1.00;;;;;;5050738;28;20204;-62
2023/07/29 11:22:54;;;;;;;1.40;1.40;;;23.70;1.00;;;;;;5051757;28;20205;-61
2023/07/29 11:25:24;;;;;;;1.83;1.73;;;24.40;1.00;;;;;;5046950;28;20221;-62
2023/07/29 11:27:53;;;;;;;6.63;1.70;;;24.70;1.00;;;;;;5053530;28;20299;-62
2023/07/29 11:30:25;;;;;;;1.67;1.67;;;24.40;1.00;;;;;;5047882;28;20308;-62
2023/07/29 11:32:56;;;;;;;1.60;1.50;;;24.10;1.00;;;;;;5057980;28;20230;-61
2023/07/29 11:35:24;;;;;;;1.57;1.57;;;23.90;1.00;;;;;;5041321;28;20197;-62
2023/07/29 11:37:56;;;;;;;1.50;1.47;;;23.50;1.00;;;;;;5050424;28;20599;-61
2023/07/29 11:40:25;;;;;;;1.80;1.70;;;23.10;1.00;;;;;;5050807;28;20220;-61
2023/07/29 11:42:54;;;;;;;1.40;1.30;;;22.80;1.00;;;;;;5044154;28;20583;-61
2023/07/29 11:45:24;;;;;;;1.20;1.20;;;22.50;1.00;;;;;;5050773;28;20251;-61
2023/07/29 11:48:08;;;;;;;1.50;1.40;;;22.40;1.00;;;;;;5050024;28;20236;-61
2023/07/29 11:50:36;;;;;;;1.33;1.33;;;22.60;1.00;;;;;;5054532;28;20580;-61
2023/07/29 11:53:06;;;;;;;1.33;1.23;;;23.10;1.00;;;;;;5050135;28;20204;-61
2023/07/29 11:55:34;;;;;;;1.20;1.20;;;23.70;1.00;;;;;;5048818;28;20215;-61
2023/07/29 11:58:03;;;;;;;1.53;1.50;;;24.40;1.00;;;;;;5053895;28;20307;-61
2023/07/29 12:00:32;;;;;;;1.40;1.30;;;24.90;1.00;;;;;;5049879;28;20217;-61
2023/07/29 12:03:01;;;;;;;1.10;1.10;;;25.00;1.00;;;;;;5050800;28;20236;-61
2023/07/29 12:05:31;;;;;;;1.30;1.30;;;25.00;1.00;;;;;;5048226;28;20251;-61
2023/07/29 12:08:00;;;;;;;1.70;1.20;;;25.10;1.00;;;;;;5054674;28;20286;-62
2023/07/29 12:10:32;;;;;;;1.20;1.20;;;25.30;1.00;;;;;;5033710;28;20228;-61
2023/07/29 12:13:03;;;;;;;1.40;1.40;;;25.50;1.00;;;;;;5043766;28;20303;-62
2023/07/29 12:15:32;;;;;;;1.33;1.33;;;25.70;1.00;;;;;;5049931;28;20330;-62
2023/07/29 12:18:01;;;;;;;2.80;1.40;;;25.70;1.00;;;;;;5047204;28;20683;-61
2023/07/29 12:20:32;;;;;;;1.40;1.40;;;25.70;1.00;;;;;;5049082;28;20235;-61
2023/07/29 12:23:02;;;;;;;1.57;1.20;;;25.90;1.00;;;;;;5045690;28;20219;-62
2023/07/29 12:25:31;;;;;;;1.67;1.57;;;26.00;99.90;;;;;;5049546;28;20227;-61
2023/07/29 12:28:04;;;;;;;2.30;1.30;;;25.70;99.90;;;;;;5050860;28;20235;-61
2023/07/29 12:30:32;;;;;;;1.10;1.10;;;25.30;1.00;;;;;;5049927;28;20212;-61
2023/07/29 12:33:00;;;;;;;1.03;1.03;;;25.20;1.00;;;;;;5056141;28;20652;-62
2023/07/29 12:35:37;;;;;;;1.50;1.40;;;25.30;1.00;;;;;;5051362;28;20241;-61
2023/07/29 12:38:06;;;;;;;1.20;1.10;;;25.50;1.00;;;;;;5050105;28;20220;-61
2023/07/29 12:40:39;;;;;;;1.30;1.30;;;25.70;99.90;;;;;;5052383;28;20670;-62
2023/07/29 12:43:07;;;;;;;1.30;1.20;;;25.90;99.90;;;;;;5050546;28;20267;-61
2023/07/29 12:45:39;;;;;;;1.40;1.30;;;26.00;99.90;;;;;;5049905;28;20233;-61
2023/07/29 12:48:08;;;;;;;1.33;1.30;;;25.90;99.90;;;;;;5050833;28;20213;-61
2023/07/29 12:50:38;;;;;;;1.10;1.10;;;25.10;99.90;;;;;;5065576;28;20220;-61
2023/07/29 12:53:10;;;;;;;1.10;1.10;;;25.60;99.90;;;;;;5053839;28;20504;-61
2023/07/29 12:55:38;;;;;;;1.30;1.20;;;25.70;99.90;;;;;;5049484;28;20217;-62
2023/07/29 12:58:06;;;;;;;1.30;1.30;;;25.80;1.00;;;;;;5049393;28;20611;-61
2023/07/29 13:00:34;;;;;;;2.65;1.40;;;25.90;99.90;;;;;;5051093;28;20256;-61
2023/07/29 13:03:05;;;;;;;1.40;1.27;;;26.10;99.90;;;;;;5046667;28;20218;-61